sensor_id;sensor_type;location;lat;lon;timestamp;temperature;humidity
10441;DHT22;5268;49.346;9.522;2023-07-31T03:10:16;17.10;99.90
10441;DHT22;5268;49.346;9.522;2023-07-31T03:15:18;17.30;99.90
10441;DHT22;5268;49.346;9.522;2023-07-31T03:20:20;17.20;99.90
10441;DHT22;5268;49.346;9.522;2023-07-31T03:25:23;17.10;99.90
10441;DHT22;5268;49.346;9.522;2023-07-31T03:30:25;17.10;99.90
10441;DHT22;5268;49.346;9.522;2023-07-31T03:35:27;17.00;99.90
10441;DHT22;5268;49.346;9.522;2023-07-31T03:40:30;17.00;99.90
10441;DHT22;5268;49.346;9.522;2023-07-31T03:45:32;16.90;99.90
10441;DHT22;5268;49.346;9.522;2023-07-31T03:50:34;16.80;99.90
10441;DHT22;5268;49.346;9.522;2023-07-31T03:55:37;16.80;99.90
10441;DHT22;5268;49.346;9.522;2023-07-31T04:00:40;16.80;99.90
10441;DHT22;5268;49.346;9.522;2023-07-31T04:05:42;16.80;99.90
10441;DHT22;5268;49.346;9.522;2023-07-31T04:10:46;16.80;99.90
10441;DHT22;5268;49.346;9.522;2023-07-31T04:15:50;16.80;99.90
10441;DHT22;5268;49.346;9.522;2023-07-31T04:20:53;16.80;99.90
10441;DHT22;5268;49.346;9.522;2023-07-31T04:25:56;16.80;99.90
10441;DHT22;5268;49.346;9.522;2023-07-31T04:30:58;16.80;99.90
10441;DHT22;5268;49.346;9.522;2023-07-31T04:36:00;16.80;99.90
10441;DHT22;5268;49.346;9.522;2023-07-31T04:41:03;16.80;99.90
10441;DHT22;5268;49.346;9.522;2023-07-31T04:46:06;16.80;99.90
10441;DHT22;5268;49.346;9.522;2023-07-31T04:51:08;16.80;99.90
10441;DHT22;5268;49.346;9.522;2023-07-31T04:56:12;16.80;99.90
10441;DHT22;5268;49.346;9.522;2023-07-31T05:01:14;16.90;99.90
10441;DHT22;5268;49.346;9.522;2023-07-31T05:06:16;16.90;99.90
10441;DHT22;5268;49.346;9.522;2023-07-31T05:11:19;17.00;99.90
10441;DHT22;5268;49.346;9.522;2023-07-31T05:16:21;17.10;99.90
10441;DHT22;5268;49.346;9.522;2023-07-31T05:21:24;17.20;99.90
10441;DHT22;5268;49.346;9.522;2023-07-31T05:26:27;17.30;99.90
10441;DHT22;5268;49.346;9.522;2023-07-31T05:31:29;17.40;99.90
10441;DHT22;5268;49.346;9.522;2023-07-31T05:36:33;17.40;99.90
10441;DHT22;5268;49.346;9.522;2023-07-31T05:41:36;17.50;99.90
10441;DHT22;5268;49.346;9.522;2023-07-31T05:46:38;17.50;99.90
10441;DHT22;5268;49.346;9.522;2023-07-31T05:51:40;17.60;99.90
10441;DHT22;5268;49.346;9.522;2023-07-31T05:56:43;17.70;99.90
10441;DHT22;5268;49.346;9.522;2023-07-31T06:01:45;17.80;99.90
10441;DHT22;5268;49.346;9.522;2023-07-31T06:06:47;17.90;99.90
10441;DHT22;5268;49.346;9.522;2023-07-31T06:11:51;18.00;99.90
10441;DHT22;5268;49.346;9.522;2023-07-31T06:16:53;18.10;99.90
10441;DHT22;5268;49.346;9.522;2023-07-31T06:21:55;18.30;99.90
10441;DHT22;5268;49.346;9.522;2023-07-31T06:26:58;18.30;99.90
10441;DHT22;5268;49.346;9.522;2023-07-31T06:32:00;18.50;99.90
10441;DHT22;5268;49.346;9.522;2023-07-31T06:37:03;18.60;99.90
10441;DHT22;5268;49.346;9.522;2023-07-31T06:42:08;18.80;99.90
10441;DHT22;5268;49.346;9.522;2023-07-31T06:47:10;19.00;99.90
10441;DHT22;5268;49.346;9.522;2023-07-31T06:52:12;19.20;99.90
10441;DHT22;5268;49.346;9.522;2023-07-31T06:57:17;19.30;99.90
10441;DHT22;5268;49.346;9.522;2023-07-31T07:02:20;19.40;99.90
10441;DHT22;5268;49.346;9.522;2023-07-31T07:07:22;19.50;99.90
10441;DHT22;5268;49.346;9.522;2023-07-31T07:12:26;19.50;99.90
10441;DHT22;5268;49.346;9.522;2023-07-31T07:17:29;19.70;99.90
10441;DHT22;5268;49.346;9.522;2023-07-31T07:22:32;19.80;99.90
10441;DHT22;5268;49.346;9.522;2023-07-31T07:27:35;20.00;99.90
10441;DHT22;5268;49.346;9.522;2023-07-31T07:32:37;20.00;99.90
10441;DHT22;5268;49.346;9.522;2023-07-31T07:37:39;20.00;99.90
10441;DHT22;5268;49.346;9.522;2023-07-31T07:42:43;20.10;99.90
10441;DHT22;5268;49.346;9.522;2023-07-31T07:47:45;20.20;99.90
10441;DHT22;5268;49.346;9.522;2023-07-31T07:52:47;20.30;99.90
10441;DHT22;5268;49.346;9.522;2023-07-31T07:57:51;20.40;99.90
10441;DHT22;5268;49.346;9.522;2023-07-31T08:02:52;20.60;99.90
10441;DHT22;5268;49.346;9.522;2023-07-31T08:07:54;20.80;99.90
10441;DHT22;5268;49.346;9.522;2023-07-31T08:12:58;20.90;99.90
10441;DHT22;5268;49.346;9.522;2023-07-31T08:18:00;21.20;99.90
10441;DHT22;5268;49.346;9.522;2023-07-31T08:23:02;21.70;99.90
10441;DHT22;5268;49.346;9.522;2023-07-31T08:28:06;22.00;99.90
10441;DHT22;5268;49.346;9.522;2023-07-31T08:33:08;22.40;99.90
10441;DHT22;5268;49.346;9.522;2023-07-31T08:38:10;22.50;99.90
10441;DHT22;5268;49.346;9.522;2023-07-31T08:43:13;22.80;99.90
10441;DHT22;5268;49.346;9.522;2023-07-31T08:48:17;22.90;99.90
10441;DHT22;5268;49.346;9.522;2023-07-31T08:53:19;22.90;99.90
10441;DHT22;5268;49.346;9.522;2023-07-31T08:58:23;22.70;99.90
10441;DHT22;5268;49.346;9.522;2023-07-31T09:03:26;22.50;99.90
10441;DHT22;5268;49.346;9.522;2023-07-31T09:08:30;22.40;99.90
10441;DHT22;5268;49.346;9.522;2023-07-31T09:13:34;22.30;99.90
10441;DHT22;5268;49.346;9.522;2023-07-31T09:18:53;22.30;99.90
10441;DHT22;5268;49.346;9.522;2023-07-31T09:23:55;22.50;99.90
10441;DHT22;5268;49.346;9.522;2023-07-31T09:28:58;22.80;99.90
10441;DHT22;5268;49.346;9.522;2023-07-31T09:34:00;23.10;99.90
10441;DHT22;5268;49.346;9.522;2023-07-31T09:39:02;23.30;99.90
10441;DHT22;5268;49.346;9.522;2023-07-31T09:44:06;23.30;99.90
10441;DHT22;5268;49.346;9.522;2023-07-31T09:49:09;23.20;99.90
10441;DHT22;5268;49.346;9.522;2023-07-31T09:54:11;23.10;99.90
10441;DHT22;5268;49.346;9.522;2023-07-31T09:59:17;23.10;99.90
10441;DHT22;5268;49.346;9.522;2023-07-31T10:04:24;23.10;99.90
10441;DHT22;5268;49.346;9.522;2023-07-31T10:09:30;23.10;99.90
10441;DHT22;5268;49.346;9.522;2023-07-31T10:14:34;23.20;99.90
10441;DHT22;5268;49.346;9.522;2023-07-31T10:19:36;23.50;99.90
10441;DHT22;5268;49.346;9.522;2023-07-31T10:24:39;23.50;99.90
10441;DHT22;5268;49.346;9.522;2023-07-31T10:29:44;23.70;99.90
10441;DHT22;5268;49.346;9.522;2023-07-31T10:34:49;24.00;99.90
10441;DHT22;5268;49.346;9.522;2023-07-31T10:39:59;24.20;99.90
10441;DHT22;5268;49.346;9.522;2023-07-31T10:45:05;24.20;99.90
10441;DHT22;5268;49.346;9.522;2023-07-31T10:50:18;24.30;99.90
10441;DHT22;5268;49.346;9.522;2023-07-31T10:55:31;24.30;99.90
10441;DHT22;5268;49.346;9.522;2023-07-31T11:00:37;24.10;99.90
10441;DHT22;5268;49.346;9.522;2023-07-31T11:05:44;24.00;99.90
10441;DHT22;5268;49.346;9.522;2023-07-31T11:10:47;23.80;99.90
10441;DHT22;5268;49.346;9.522;2023-07-31T11:15:51;23.70;99.90
10441;DHT22;5268;49.346;9.522;2023-07-31T11:20:53;23.50;99.90
10441;DHT22;5268;49.346;9.522;2023-07-31T11:25:59;23.40;99.90
10441;DHT22;5268;49.346;9.522;2023-07-31T11:31:03;23.20;99.90
10441;DHT22;5268;49.346;9.522;2023-07-31T11:36:05;23.20;99.90
10441;DHT22;5268;49.346;9.522;2023-07-31T11:41:07;23.30;99.90
10441;DHT22;5268;49.346;9.522;2023-07-31T11:46:10;23.50;99.90
10441;DHT22;5268;49.346;9.522;2023-07-31T11:51:13;23.70;99.90
10441;DHT22;5268;49.346;9.522;2023-07-31T11:56:17;23.70;99.90
10441;DHT22;5268;49.346;9.522;2023-07-31T12:01:22;23.80;99.90
10441;DHT22;5268;49.346;9.522;2023-07-31T12:06:33;23.60;99.90
10441;DHT22;5268;49.346;9.522;2023-07-31T12:11:43;23.70;99.90
10441;DHT22;5268;49.346;9.522;2023-07-31T12:16:47;23.60;99.90
10441;DHT22;5268;49.346;9.522;2023-07-31T12:21:49;23.50;99.90
10441;DHT22;5268;49.346;9.522;2023-07-31T12:26:51;23.50;99.90
10441;DHT22;5268;49.346;9.522;2023-07-31T12:31:55;23.60;99.90
10441;DHT22;5268;49.346;9.522;2023-07-31T12:36:57;23.70;99.90
10441;DHT22;5268;49.346;9.522;2023-07-31T12:41:59;23.70;99.90
10441;DHT22;5268;49.346;9.522;2023-07-31T12:47:02;23.60;99.90
10441;DHT22;5268;49.346;9.522;2023-07-31T12:52:05;23.50;99.90
10441;DHT22;5268;49.346;9.522;2023-07-31T12:57:07;23.40;99.90
10441;DHT22;5268;49.346;9.522;2023-07-31T13:02:11;23.30;99.90
10441;DHT22;5268;49.346;9.522;2023-07-31T13:07:13;23.30;99.90
10441;DHT22;5268;49.346;9.522;2023-07-31T13:12:15;23.40;99.90
10441;DHT22;5268;49.346;9.522;2023-07-31T13:17:18;23.40;99.90
10441;DHT22;5268;49.346;9.522;2023-07-31T13:22:20;23.50;99.90
10441;DHT22;5268;49.346;9.522;2023-07-31T13:27:22;23.50;99.90
10441;DHT22;5268;49.346;9.522;2023-07-31T13:32:26;23.50;99.90
10441;DHT22;5268;49.346;9.522;2023-07-31T13:37:28;23.40;99.90
10441;DHT22;5268;49.346;9.522;2023-07-31T13:42:30;23.40;99.90
10441;DHT22;5268;49.346;9.522;2023-07-31T13:47:33;23.40;99.90
10441;DHT22;5268;49.346;9.522;2023-07-31T13:52:37;23.50;99.90
10441;DHT22;5268;49.346;9.522;2023-07-31T13:57:39;23.60;99.90
10441;DHT22;5268;49.346;9.522;2023-07-31T14:02:42;23.60;99.90
10441;DHT22;5268;49.346;9.522;2023-07-31T14:07:44;23.50;99.90
10441;DHT22;5268;49.346;9.522;2023-07-31T14:12:46;23.40;99.90
10441;DHT22;5268;49.346;9.522;2023-07-31T14:17:50;23.40;99.90
10441;DHT22;5268;49.346;9.522;2023-07-31T14:22:51;23.40;99.90
10441;DHT22;5268;49.346;9.522;2023-07-31T14:27:54;23.40;99.90
10441;DHT22;5268;49.346;9.522;2023-07-31T14:32:58;23.60;99.90
10441;DHT22;5268;49.346;9.522;2023-07-31T14:38:02;23.70;99.90
10441;DHT22;5268;49.346;9.522;2023-07-31T14:43:04;23.80;99.90
10441;DHT22;5268;49.346;9.522;2023-07-31T14:48:08;23.80;99.90
10441;DHT22;5268;49.346;9.522;2023-07-31T14:53:10;23.70;99.90
10441;DHT22;5268;49.346;9.522;2023-07-31T14:58:12;23.60;99.90
10441;DHT22;5268;49.346;9.522;2023-07-31T15:03:16;23.60;99.90
10441;DHT22;5268;49.346;9.522;2023-07-31T15:08:18;23.60;99.90
10441;DHT22;5268;49.346;9.522;2023-07-31T15:13:20;23.60;99.90
10441;DHT22;5268;49.346;9.522;2023-07-31T15:18:24;23.60;99.90
10441;DHT22;5268;49.346;9.522;2023-07-31T15:23:26;23.70;99.90
10441;DHT22;5268;49.346;9.522;2023-07-31T15:28:28;23.60;99.90
10441;DHT22;5268;49.346;9.522;2023-07-31T15:33:31;23.70;99.90
10441;DHT22;5268;49.346;9.522;2023-07-31T15:38:33;23.60;99.90
10441;DHT22;5268;49.346;9.522;2023-07-31T15:43:36;23.60;99.90
10441;DHT22;5268;49.346;9.522;2023-07-31T15:48:39;23.60;99.90
10441;DHT22;5268;49.346;9.522;2023-07-31T15:53:41;23.50;99.90
10441;DHT22;5268;49.346;9.522;2023-07-31T15:58:43;23.50;99.90
10441;DHT22;5268;49.346;9.522;2023-07-31T16:03:46;23.40;99.90
10441;DHT22;5268;49.346;9.522;2023-07-31T16:08:50;23.50;99.90
10441;DHT22;5268;49.346;9.522;2023-07-31T16:13:51;23.50;99.90
10441;DHT22;5268;49.346;9.522;2023-07-31T16:18:55;23.40;99.90
10441;DHT22;5268;49.346;9.522;2023-07-31T16:23:57;23.40;99.90
10441;DHT22;5268;49.346;9.522;2023-07-31T16:28:59;23.30;99.90
10441;DHT22;5268;49.346;9.522;2023-07-31T16:34:02;23.30;99.90
10441;DHT22;5268;49.346;9.522;2023-07-31T16:39:04;23.30;99.90
10441;DHT22;5268;49.346;9.522;2023-07-31T16:44:06;23.30;99.90
10441;DHT22;5268;49.346;9.522;2023-07-31T16:49:10;23.30;99.90
10441;DHT22;5268;49.346;9.522;2023-07-31T16:54:12;23.30;99.90
10441;DHT22;5268;49.346;9.522;2023-07-31T16:59:14;23.30;99.90
10441;DHT22;5268;49.346;9.522;2023-07-31T17:04:18;23.30;99.90
10441;DHT22;5268;49.346;9.522;2023-07-31T17:09:20;23.30;99.90
10441;DHT22;5268;49.346;9.522;2023-07-31T17:14:22;23.20;99.90
10441;DHT22;5268;49.346;9.522;2023-07-31T17:19:25;23.20;99.90
10441;DHT22;5268;49.346;9.522;2023-07-31T17:24:27;23.20;99.90
10441;DHT22;5268;49.346;9.522;2023-07-31T17:29:29;23.10;99.90
10441;DHT22;5268;49.346;9.522;2023-07-31T17:34:33;23.10;99.90
10441;DHT22;5268;49.346;9.522;2023-07-31T17:39:35;23.00;99.90
10441;DHT22;5268;49.346;9.522;2023-07-31T17:44:37;23.00;99.90
10441;DHT22;5268;49.346;9.522;2023-07-31T17:49:41;22.90;99.90
10441;DHT22;5268;49.346;9.522;2023-07-31T17:54:43;22.90;99.90
10441;DHT22;5268;49.346;9.522;2023-07-31T17:59:45;22.90;99.90
10441;DHT22;5268;49.346;9.522;2023-07-31T18:04:49;22.80;99.90
10441;DHT22;5268;49.346;9.522;2023-07-31T18:09:51;22.70;99.90
10441;DHT22;5268;49.346;9.522;2023-07-31T18:14:52;22.60;99.90
10441;DHT22;5268;49.346;9.522;2023-07-31T18:19:56;22.40;99.90
10441;DHT22;5268;49.346;9.522;2023-07-31T18:24:58;22.30;99.90
10441;DHT22;5268;49.346;9.522;2023-07-31T18:30:00;22.10;99.90
10441;DHT22;5268;49.346;9.522;2023-07-31T18:35:03;22.00;99.90
10441;DHT22;5268;49.346;9.522;2023-07-31T18:40:07;21.90;99.90
10441;DHT22;5268;49.346;9.522;2023-07-31T18:45:09;21.80;99.90
10441;DHT22;5268;49.346;9.522;2023-07-31T18:50:13;21.60;99.90
10441;DHT22;5268;49.346;9.522;2023-07-31T18:55:15;21.40;99.90
10441;DHT22;5268;49.346;9.522;2023-07-31T19:00:17;21.30;99.90
10441;DHT22;5268;49.346;9.522;2023-07-31T19:05:20;21.20;99.90
10441;DHT22;5268;49.346;9.522;2023-07-31T19:10:22;21.10;99.90
10441;DHT22;5268;49.346;9.522;2023-07-31T19:15:25;21.10;99.90
10441;DHT22;5268;49.346;9.522;2023-07-31T19:20:28;21.00;99.90
10441;DHT22;5268;49.346;9.522;2023-07-31T19:25:30;20.90;99.90
10441;DHT22;5268;49.346;9.522;2023-07-31T19:30:32;20.80;99.90
10441;DHT22;5268;49.346;9.522;2023-07-31T19:35:35;20.60;99.90
10441;DHT22;5268;49.346;9.522;2023-07-31T19:40:37;20.50;99.90
10441;DHT22;5268;49.346;9.522;2023-07-31T19:45:39;20.50;99.90
10441;DHT22;5268;49.346;9.522;2023-07-31T19:50:43;20.50;99.90
10441;DHT22;5268;49.346;9.522;2023-07-31T19:55:47;20.40;99.90
10441;DHT22;5268;49.346;9.522;2023-07-31T20:00:49;20.40;99.90
10441;DHT22;5268;49.346;9.522;2023-07-31T20:05:52;20.30;99.90
10441;DHT22;5268;49.346;9.522;2023-07-31T20:10:54;20.20;99.90
10441;DHT22;5268;49.346;9.522;2023-07-31T20:16:00;20.20;99.90
10441;DHT22;5268;49.346;9.522;2023-07-31T20:21:03;20.20;99.90
10441;DHT22;5268;49.346;9.522;2023-07-31T20:26:05;20.20;99.90
10441;DHT22;5268;49.346;9.522;2023-07-31T20:31:08;20.10;99.90
10441;DHT22;5268;49.346;9.522;2023-07-31T20:36:14;20.10;99.90
10441;DHT22;5268;49.346;9.522;2023-07-31T20:41:16;20.10;99.90
10441;DHT22;5268;49.346;9.522;2023-07-31T20:46:18;20.10;99.90
10441;DHT22;5268;49.346;9.522;2023-07-31T20:51:21;20.00;99.90
10441;DHT22;5268;49.346;9.522;2023-07-31T20:56:23;20.00;99.90
10441;DHT22;5268;49.346;9.522;2023-07-31T21:01:25;19.90;99.90
10441;DHT22;5268;49.346;9.522;2023-07-31T21:06:28;19.90;99.90
10441;DHT22;5268;49.346;9.522;2023-07-31T21:11:31;19.90;99.90
10441;DHT22;5268;49.346;9.522;2023-07-31T21:16:35;19.80;99.90
10441;DHT22;5268;49.346;9.522;2023-07-31T21:21:38;19.80;99.90
10441;DHT22;5268;49.346;9.522;2023-07-31T21:26:40;19.80;99.90
10441;DHT22;5268;49.346;9.522;2023-07-31T21:31:42;19.70;99.90
10441;DHT22;5268;49.346;9.522;2023-07-31T21:36:45;19.70;99.90
10441;DHT22;5268;49.346;9.522;2023-07-31T21:41:47;19.70;99.90
10441;DHT22;5268;49.346;9.522;2023-07-31T21:46:49;19.70;99.90
10441;DHT22;5268;49.346;9.522;2023-07-31T21:51:53;19.60;99.90
